Terminal Aerodrome Forecast
Issued by NWS

Home | Current Version | Previous Version | Graphics & Text | Print | Product List | Glossary On
Versions: 1 2 3 4 5 6 7 8 9 10 11 12 13 14 15 16 17 18 19 20 21 22 23
000
FTUS43 KOAX 270910 AAA
TAFCDR
TAF AMD
KCDR 270910Z 2709/2806 VRB06KT P6SM BKN100
      TEMPO 2711/2714 5SM BR BKN020 OVC050
     FM271500 25008KT P6SM SCT100=

USA.gov is the U.S. government's official web portal to all federal, state and local government web resources and services.